Ride Results

Tooraweenah (14-04-2017)
Ride distance: 80.0 km

Outcomes - Tooraweenah (14-04-2017)
Division No. of Entries Retired / DNE Completed Withdrawn Ineligible V/O Percentage Completed
HW 6 - 5 - - 1 83.33%
MW 10 - 7 - - 3 70.00%
LW 7 - 6 - - 1 85.71%
JN 3 - 2 - - 1 66.67%
Totals 26 - 20 - - 6 76.92%
Results - Tooraweenah (14-04-2017)
No. Rider Horse Place Time Leg Speeds Total
Km/Hr
H/R bpm
Heavyweight
421 Christopher Bailey Prince Nakeel Spa 1 (BC) 5:17:27 14.2, 16.0 15.12 28, 42, 44 (Avg:43)
430 Tami Parnell Cherox Kenya 2 6:33:57 12.4, 11.8 12.18 27, 36, 40 (Avg:38)
427 Brett Pevy Jamal Desert Mist 3 7:35:11 11.8, 9.4 10.55 37, 46, 47 (Avg:46)
429 Chris Geddes Prince Emani Spa 4 7:38:09 10.5, 10.4 10.48 38, 42, 50 (Avg:46)
428 Keith Sumpner Fonda 5 8:44:03 10.4, 8.1 9.16 36, 43, 55 (Avg:49)
422 Jolene Cole Webbs Creek Lawson Heart Rate L2 0:00:00 12.4, 16.0 - 38, 42, 66 (Avg:54)
Middleweight
310 Shelley Jones Shellal Blue 1 (BC) 6:19:00 13.4, 11.9 12.66 41, 48, 41 (Avg:44)
320 Ben Hudson Littlebanks Integrity 2 6:24:00 12.4, 12.5 12.50 32, 40, 45 (Avg:42)
302 Debbie Pevy Shar-Nee Santorini 3 6:33:33 11.8, 12.5 12.20 36, 44, 43 (Avg:43)
321 Gavin Peacock Chop Chop 4 6:34:58 12.0, 12.2 12.15 30, 50, 56 (Avg:53)
311 Peter Bice Georgie Girl 5 7:29:40 11.9, 9.6 10.67 44, 42, 40 (Avg:41)
319 Jo Davis Wongaburra Legacy 6 7:35:13 11.8, 9.4 10.54 30, 38, 38 (Avg:38)
322 Jenny Berg Sienna War Crimes 7 7:38:08 10.5, 10.4 10.48 44, 51, 44 (Avg:47)
303 Tomeika Bond-Pevy Mr Bo-Jangles Heart Rate L1 0:00:00 11.8 - 32, 50, 80 (Avg:65)
323 Nicolle Brown Kie-Al Nasarian Lame L1 0:00:00 13.7 - 36, 52 (Avg:52)
324 Tracey Hutchinson Woodbourne Granite Lame L1 0:00:00 12.4 - 34, 43 (Avg:43)
Lightweight
206 Kate Pilley Aloha Zulm 1 6:19:00 13.4, 11.9 12.66 29, 40, 45 (Avg:42)
212 Amanda Myers Grattai Station Traveller 2 (BC) 6:24:30 12.8, 12.1 12.48 41, 42, 42 (Avg:42)
213 Cody Holloway Ahnoosa 3 6:32:58 12.0, 12.3 12.21 32, 40, 41 (Avg:40)
200 Sue Todd Shakari Bear 4 7:29:44 11.9, 9.6 10.67 46, 44, 50 (Avg:47)
205 Sara Worner Raelan Sophie 5 8:30:00 8.7, 10.1 9.41 41, 46, 50 (Avg:48)
210 Jan Wade Hillville Amigo 6 8:43:50 10.4, 8.1 9.16 35, 42, 56 (Avg:49)
209 Elaine Kirby Turingal Park Nicholas Metabolics L2 0:00:00 9.7, 12.3 - 46, 40, 53 (Avg:46)
Junior
103 Charlie Bonham Box Hill Hussy 1 (BC) 6:31:45 12.1, 12.3 12.25 30, 40, 43 (Avg:41)
104 Brooke Bonus Box Hill Banjo 2 8:30:00 8.7, 10.1 9.41 28, 32, 36 (Avg:34)
102 Blake Duff Box Hill Rogan Josh Lame L1 0:00:00 8.7 - 32, 36 (Avg:36)